sensor_id;sensor_type;location;lat;lon;timestamp;pressure;altitude;pressure_sealevel;temperature;humidity
50977;BME280;36992;48.200;12.418;2022-12-13T00:01:17;96188.53;;;-1.36;48.57
50977;BME280;36992;48.200;12.418;2022-12-13T00:03:44;96183.72;;;-1.39;48.85
50977;BME280;36992;48.200;12.418;2022-12-13T00:06:11;96182.91;;;-1.39;47.68
50977;BME280;36992;48.200;12.418;2022-12-13T00:08:38;96175.44;;;-1.42;47.91
50977;BME280;36992;48.200;12.418;2022-12-13T00:11:09;96184.16;;;-1.42;48.96
50977;BME280;36992;48.200;12.418;2022-12-13T00:13:37;96174.84;;;-1.44;49.09
50977;BME280;36992;48.200;12.418;2022-12-13T00:16:05;96172.47;;;-1.46;48.75
50977;BME280;36992;48.200;12.418;2022-12-13T00:18:33;96169.00;;;-1.46;49.33
50977;BME280;36992;48.200;12.418;2022-12-13T00:21:03;96167.19;;;-1.46;48.98
50977;BME280;36992;48.200;12.418;2022-12-13T00:23:30;96168.22;;;-1.47;49.22
50977;BME280;36992;48.200;12.418;2022-12-13T00:26:01;96165.31;;;-1.45;48.85
50977;BME280;36992;48.200;12.418;2022-12-13T00:28:28;96158.66;;;-1.48;49.07
50977;BME280;36992;48.200;12.418;2022-12-13T00:30:57;96158.66;;;-1.48;49.34
50977;BME280;36992;48.200;12.418;2022-12-13T00:33:23;96151.75;;;-1.49;48.84
50977;BME280;36992;48.200;12.418;2022-12-13T00:35:50;96155.44;;;-1.50;48.76
50977;BME280;36992;48.200;12.418;2022-12-13T00:38:17;96154.63;;;-1.51;48.96
50977;BME280;36992;48.200;12.418;2022-12-13T00:40:44;96154.06;;;-1.53;48.86
50977;BME280;36992;48.200;12.418;2022-12-13T00:43:10;96149.81;;;-1.54;48.98
50977;BME280;36992;48.200;12.418;2022-12-13T00:45:37;96153.50;;;-1.55;48.08
50977;BME280;36992;48.200;12.418;2022-12-13T00:48:05;96148.22;;;-1.55;48.04
50977;BME280;36992;48.200;12.418;2022-12-13T00:50:32;96147.03;;;-1.59;48.72
50977;BME280;36992;48.200;12.418;2022-12-13T00:52:59;96138.56;;;-1.61;48.34
50977;BME280;36992;48.200;12.418;2022-12-13T00:55:27;96145.88;;;-1.63;48.88
50977;BME280;36992;48.200;12.418;2022-12-13T00:57:53;96145.88;;;-1.63;48.76
50977;BME280;36992;48.200;12.418;2022-12-13T01:00:20;96149.56;;;-1.64;48.37
50977;BME280;36992;48.200;12.418;2022-12-13T01:02:46;96152.44;;;-1.66;48.79
50977;BME280;36992;48.200;12.418;2022-12-13T01:05:14;96144.53;;;-1.66;48.68
50977;BME280;36992;48.200;12.418;2022-12-13T01:07:41;96149.22;;;-1.68;48.67
50977;BME280;36992;48.200;12.418;2022-12-13T01:10:09;96148.66;;;-1.70;49.05
50977;BME280;36992;48.200;12.418;2022-12-13T01:12:36;96147.25;;;-1.72;47.99
50977;BME280;36992;48.200;12.418;2022-12-13T01:15:05;96147.25;;;-1.72;48.86
50977;BME280;36992;48.200;12.418;2022-12-13T01:17:33;96143.22;;;-1.75;48.46
50977;BME280;36992;48.200;12.418;2022-12-13T01:20:00;96144.50;;;-1.78;48.33
50977;BME280;36992;48.200;12.418;2022-12-13T01:22:28;96143.69;;;-1.78;49.23
50977;BME280;36992;48.200;12.418;2022-12-13T01:24:54;96137.25;;;-1.82;48.90
50977;BME280;36992;48.200;12.418;2022-12-13T01:27:21;96147.00;;;-1.83;48.85
50977;BME280;36992;48.200;12.418;2022-12-13T01:29:47;96146.44;;;-1.85;48.46
50977;BME280;36992;48.200;12.418;2022-12-13T01:32:14;96140.59;;;-1.87;48.77
50977;BME280;36992;48.200;12.418;2022-12-13T01:34:40;96145.25;;;-1.89;49.16
50977;BME280;36992;48.200;12.418;2022-12-13T01:37:07;96142.63;;;-1.89;48.38
50977;BME280;36992;48.200;12.418;2022-12-13T01:39:35;96137.13;;;-1.87;48.02
50977;BME280;36992;48.200;12.418;2022-12-13T01:42:03;96135.16;;;-1.92;47.97
50977;BME280;36992;48.200;12.418;2022-12-13T01:47:36;96125.38;;;-2.04;48.41
50977;BME280;36992;48.200;12.418;2022-12-13T01:50:07;96128.72;;;-2.08;48.54
50977;BME280;36992;48.200;12.418;2022-12-13T01:52:37;96123.06;;;-2.12;48.96
50977;BME280;36992;48.200;12.418;2022-12-13T01:55:06;96121.44;;;-2.13;49.28
50977;BME280;36992;48.200;12.418;2022-12-13T01:57:35;96117.19;;;-2.14;49.47
50977;BME280;36992;48.200;12.418;2022-12-13T02:00:04;96121.69;;;-2.14;49.08
50977;BME280;36992;48.200;12.418;2022-12-13T02:02:31;96104.00;;;-2.14;48.71
50977;BME280;36992;48.200;12.418;2022-12-13T02:05:03;96110.88;;;-2.13;48.59
50977;BME280;36992;48.200;12.418;2022-12-13T02:07:33;96104.00;;;-2.14;48.81
50977;BME280;36992;48.200;12.418;2022-12-13T02:10:05;96112.53;;;-2.12;49.33
50977;BME280;36992;48.200;12.418;2022-12-13T02:12:34;96105.59;;;-2.13;48.92
50977;BME280;36992;48.200;12.418;2022-12-13T02:15:04;96100.31;;;-2.13;48.97
50977;BME280;36992;48.200;12.418;2022-12-13T02:17:46;96094.59;;;-2.10;48.92
50977;BME280;36992;48.200;12.418;2022-12-13T02:20:41;96103.09;;;-2.08;49.24
50977;BME280;36992;48.200;12.418;2022-12-13T02:23:31;96096.22;;;-2.09;48.70
50977;BME280;36992;48.200;12.418;2022-12-13T02:26:31;96090.38;;;-2.11;48.51
50977;BME280;36992;48.200;12.418;2022-12-13T02:32:01;96089.31;;;-2.22;48.38
50977;BME280;36992;48.200;12.418;2022-12-13T02:34:34;96081.03;;;-2.25;48.86
50977;BME280;36992;48.200;12.418;2022-12-13T02:37:05;96074.13;;;-2.26;49.00
50977;BME280;36992;48.200;12.418;2022-12-13T02:39:34;96070.09;;;-2.29;49.11
50977;BME280;36992;48.200;12.418;2022-12-13T02:42:04;96060.38;;;-2.28;48.56
50977;BME280;36992;48.200;12.418;2022-12-13T02:44:34;96064.84;;;-2.29;48.94
50977;BME280;36992;48.200;12.418;2022-12-13T02:47:09;96059.81;;;-2.31;48.39
50977;BME280;36992;48.200;12.418;2022-12-13T02:49:41;96048.66;;;-2.33;48.65
50977;BME280;36992;48.200;12.418;2022-12-13T02:52:12;96056.56;;;-2.33;49.00
50977;BME280;36992;48.200;12.418;2022-12-13T02:54:40;96057.03;;;-2.36;49.19
50977;BME280;36992;48.200;12.418;2022-12-13T02:57:25;96066.09;;;-2.32;49.08
50977;BME280;36992;48.200;12.418;2022-12-13T02:59:53;96059.44;;;-2.34;48.91
50977;BME280;36992;48.200;12.418;2022-12-13T03:02:25;96053.94;;;-2.33;49.01
50977;BME280;36992;48.200;12.418;2022-12-13T03:05:03;96050.25;;;-2.32;48.85
50977;BME280;36992;48.200;12.418;2022-12-13T03:07:54;96043.38;;;-2.33;49.20
50977;BME280;36992;48.200;12.418;2022-12-13T03:10:29;96033.84;;;-2.34;49.30
50977;BME280;36992;48.200;12.418;2022-12-13T03:13:01;96035.47;;;-2.33;49.44
50977;BME280;36992;48.200;12.418;2022-12-13T03:15:49;96033.63;;;-2.32;49.25
50977;BME280;36992;48.200;12.418;2022-12-13T03:18:21;96029.16;;;-2.32;48.91
50977;BME280;36992;48.200;12.418;2022-12-13T03:20:50;96029.16;;;-2.32;48.83
50977;BME280;36992;48.200;12.418;2022-12-13T03:23:19;96029.16;;;-2.32;49.12
50977;BME280;36992;48.200;12.418;2022-12-13T03:25:46;96025.72;;;-2.32;48.86
50977;BME280;36992;48.200;12.418;2022-12-13T03:28:15;96023.88;;;-2.32;48.89
50977;BME280;36992;48.200;12.418;2022-12-13T03:30:42;96025.50;;;-2.31;48.87
50977;BME280;36992;48.200;12.418;2022-12-13T03:33:09;96015.97;;;-2.32;48.77
50977;BME280;36992;48.200;12.418;2022-12-13T03:35:38;96024.47;;;-2.29;49.11
50977;BME280;36992;48.200;12.418;2022-12-13T03:38:05;96028.38;;;-2.32;49.15
50977;BME280;36992;48.200;12.418;2022-12-13T03:40:32;96031.00;;;-2.32;48.87
50977;BME280;36992;48.200;12.418;2022-12-13T03:42:59;96029.16;;;-2.32;48.77
50977;BME280;36992;48.200;12.418;2022-12-13T03:45:26;96023.88;;;-2.32;48.89
50977;BME280;36992;48.200;12.418;2022-12-13T03:47:52;96023.88;;;-2.32;48.59
50977;BME280;36992;48.200;12.418;2022-12-13T03:50:19;96027.53;;;-2.33;48.71
50977;BME280;36992;48.200;12.418;2022-12-13T03:52:47;96025.94;;;-2.34;48.58
50977;BME280;36992;48.200;12.418;2022-12-13T03:55:15;96025.16;;;-2.34;48.88
50977;BME280;36992;48.200;12.418;2022-12-13T03:57:42;96028.78;;;-2.35;48.72
50977;BME280;36992;48.200;12.418;2022-12-13T04:00:09;96022.75;;;-2.36;48.73
50977;BME280;36992;48.200;12.418;2022-12-13T04:02:36;96021.91;;;-2.36;48.61
50977;BME280;36992;48.200;12.418;2022-12-13T04:05:03;96017.47;;;-2.36;48.98
50977;BME280;36992;48.200;12.418;2022-12-13T04:07:30;96007.94;;;-2.37;48.46
50977;BME280;36992;48.200;12.418;2022-12-13T04:09:57;96006.91;;;-2.36;48.84
50977;BME280;36992;48.200;12.418;2022-12-13T04:12:24;96005.31;;;-2.37;48.58
50977;BME280;36992;48.200;12.418;2022-12-13T04:15:08;96002.88;;;-2.38;48.70
50977;BME280;36992;48.200;12.418;2022-12-13T04:17:35;96007.34;;;-2.39;48.06
50977;BME280;36992;48.200;12.418;2022-12-13T04:20:02;96004.13;;;-2.41;48.30
50977;BME280;36992;48.200;12.418;2022-12-13T04:22:29;96011.22;;;-2.41;47.35
50977;BME280;36992;48.200;12.418;2022-12-13T04:24:55;96004.56;;;-2.44;47.77
50977;BME280;36992;48.200;12.418;2022-12-13T04:27:23;96000.59;;;-2.47;48.14
50977;BME280;36992;48.200;12.418;2022-12-13T04:29:49;96005.47;;;-2.50;48.67
50977;BME280;36992;48.200;12.418;2022-12-13T04:32:16;96011.22;;;-2.53;48.41
50977;BME280;36992;48.200;12.418;2022-12-13T04:34:42;96004.78;;;-2.58;47.95
50977;BME280;36992;48.200;12.418;2022-12-13T04:37:09;96008.44;;;-2.59;48.29
50977;BME280;36992;48.200;12.418;2022-12-13T04:39:35;96008.91;;;-2.62;48.91
50977;BME280;36992;48.200;12.418;2022-12-13T04:42:03;96007.28;;;-2.63;48.58
50977;BME280;36992;48.200;12.418;2022-12-13T04:44:31;96000.41;;;-2.64;48.74
50977;BME280;36992;48.200;12.418;2022-12-13T04:46:57;96005.94;;;-2.65;48.65
50977;BME280;36992;48.200;12.418;2022-12-13T04:49:24;95999.84;;;-2.66;48.71
50977;BME280;36992;48.200;12.418;2022-12-13T04:51:50;95990.31;;;-2.67;48.50
50977;BME280;36992;48.200;12.418;2022-12-13T04:54:17;95995.59;;;-2.67;48.44
50977;BME280;36992;48.200;12.418;2022-12-13T04:56:43;95999.25;;;-2.68;48.89
50977;BME280;36992;48.200;12.418;2022-12-13T04:59:10;96004.53;;;-2.68;48.85
50977;BME280;36992;48.200;12.418;2022-12-13T05:01:37;96003.28;;;-2.65;48.72
50977;BME280;36992;48.200;12.418;2022-12-13T05:04:04;95998.81;;;-2.65;49.00
50977;BME280;36992;48.200;12.418;2022-12-13T05:06:31;96002.25;;;-2.64;48.74
50977;BME280;36992;48.200;12.418;2022-12-13T05:08:57;96008.09;;;-2.62;48.94
50977;BME280;36992;48.200;12.418;2022-12-13T05:11:24;95995.94;;;-2.63;48.76
50977;BME280;36992;48.200;12.418;2022-12-13T05:13:50;96001.00;;;-2.62;48.72
50977;BME280;36992;48.200;12.418;2022-12-13T05:16:17;95994.09;;;-2.63;48.79
50977;BME280;36992;48.200;12.418;2022-12-13T05:18:45;95997.53;;;-2.62;48.81
50977;BME280;36992;48.200;12.418;2022-12-13T05:21:11;95989.84;;;-2.64;48.53
50977;BME280;36992;48.200;12.418;2022-12-13T05:23:38;95993.53;;;-2.65;48.67
50977;BME280;36992;48.200;12.418;2022-12-13T05:26:04;95984.00;;;-2.66;48.60
50977;BME280;36992;48.200;12.418;2022-12-13T05:28:31;95989.84;;;-2.64;48.53
50977;BME280;36992;48.200;12.418;2022-12-13T05:31:04;95986.78;;;-2.61;48.83
50977;BME280;36992;48.200;12.418;2022-12-13T05:33:31;95986.19;;;-2.63;48.67
50977;BME280;36992;48.200;12.418;2022-12-13T05:35:59;95971.75;;;-2.60;48.88
50977;BME280;36992;48.200;12.418;2022-12-13T05:38:26;95972.00;;;-2.62;48.45
50977;BME280;36992;48.200;12.418;2022-12-13T05:40:53;95974.38;;;-2.60;48.74
50977;BME280;36992;48.200;12.418;2022-12-13T05:43:19;95977.84;;;-2.60;48.36
50977;BME280;36992;48.200;12.418;2022-12-13T05:45:48;95978.88;;;-2.61;48.00
50977;BME280;36992;48.200;12.418;2022-12-13T05:48:14;95970.75;;;-2.59;48.08
50977;BME280;36992;48.200;12.418;2022-12-13T05:50:41;95971.19;;;-2.62;48.38
50977;BME280;36992;48.200;12.418;2022-12-13T05:53:09;95972.78;;;-2.61;48.26
50977;BME280;36992;48.200;12.418;2022-12-13T05:55:37;95978.53;;;-2.64;47.91
50977;BME280;36992;48.200;12.418;2022-12-13T05:58:04;95979.78;;;-2.67;47.66
50977;BME280;36992;48.200;12.418;2022-12-13T06:00:30;95978.16;;;-2.68;48.18
50977;BME280;36992;48.200;12.418;2022-12-13T06:02:57;95975.97;;;-2.71;47.89
50977;BME280;36992;48.200;12.418;2022-12-13T06:05:24;95971.94;;;-2.74;48.39
50977;BME280;36992;48.200;12.418;2022-12-13T06:07:53;95972.19;;;-2.75;47.99
50977;BME280;36992;48.200;12.418;2022-12-13T06:10:21;95976.06;;;-2.78;48.21
50977;BME280;36992;48.200;12.418;2022-12-13T06:12:48;95975.72;;;-2.81;48.13
50977;BME280;36992;48.200;12.418;2022-12-13T06:15:14;95970.66;;;-2.83;47.99
50977;BME280;36992;48.200;12.418;2022-12-13T06:17:41;95964.59;;;-2.83;48.21
50977;BME280;36992;48.200;12.418;2022-12-13T06:20:08;95977.97;;;-2.85;48.17
50977;BME280;36992;48.200;12.418;2022-12-13T06:22:35;95971.91;;;-2.86;48.02
50977;BME280;36992;48.200;12.418;2022-12-13T06:25:02;95970.31;;;-2.87;48.43
50977;BME280;36992;48.200;12.418;2022-12-13T06:27:30;95972.72;;;-2.85;48.16
50977;BME280;36992;48.200;12.418;2022-12-13T06:29:56;95974.56;;;-2.86;47.91
50977;BME280;36992;48.200;12.418;2022-12-13T06:32:23;95974.56;;;-2.86;48.07
50977;BME280;36992;48.200;12.418;2022-12-13T06:34:49;95983.25;;;-2.85;48.11
50977;BME280;36992;48.200;12.418;2022-12-13T06:37:16;95990.94;;;-2.83;47.82
50977;BME280;36992;48.200;12.418;2022-12-13T06:39:42;95994.63;;;-2.85;47.97
50977;BME280;36992;48.200;12.418;2022-12-13T06:42:13;95993.59;;;-2.83;48.59
50977;BME280;36992;48.200;12.418;2022-12-13T06:44:42;95995.44;;;-2.84;48.34
50977;BME280;36992;48.200;12.418;2022-12-13T06:47:09;95993.00;;;-2.86;48.11
50977;BME280;36992;48.200;12.418;2022-12-13T06:49:36;95995.66;;;-2.86;48.04
50977;BME280;36992;48.200;12.418;2022-12-13T06:52:03;95994.63;;;-2.85;47.97
50977;BME280;36992;48.200;12.418;2022-12-13T06:54:30;95990.16;;;-2.84;47.57
50977;BME280;36992;48.200;12.418;2022-12-13T06:56:56;96000.47;;;-2.82;48.16
50977;BME280;36992;48.200;12.418;2022-12-13T06:59:23;95994.19;;;-2.81;47.79
50977;BME280;36992;48.200;12.418;2022-12-13T07:01:50;95999.00;;;-2.78;47.83
50977;BME280;36992;48.200;12.418;2022-12-13T07:04:17;95996.56;;;-2.80;47.52
50977;BME280;36992;48.200;12.418;2022-12-13T07:06:44;95998.41;;;-2.80;47.42
50977;BME280;36992;48.200;12.418;2022-12-13T07:09:10;96001.06;;;-2.80;47.46
50977;BME280;36992;48.200;12.418;2022-12-13T07:11:36;95994.97;;;-2.81;47.85
50977;BME280;36992;48.200;12.418;2022-12-13T07:14:03;96006.53;;;-2.82;48.08
50977;BME280;36992;48.200;12.418;2022-12-13T07:16:29;96008.97;;;-2.80;47.26
50977;BME280;36992;48.200;12.418;2022-12-13T07:18:59;96010.56;;;-2.79;47.72
50977;BME280;36992;48.200;12.418;2022-12-13T07:21:26;96016.28;;;-2.82;47.91
50977;BME280;36992;48.200;12.418;2022-12-13T07:23:53;96016.28;;;-2.82;47.57
50977;BME280;36992;48.200;12.418;2022-12-13T07:26:19;96014.47;;;-2.82;47.45
50977;BME280;36992;48.200;12.418;2022-12-13T07:28:46;96010.44;;;-2.85;47.89
50977;BME280;36992;48.200;12.418;2022-12-13T07:31:13;96012.50;;;-2.87;48.30
50977;BME280;36992;48.200;12.418;2022-12-13T07:33:40;96007.22;;;-2.87;47.88
50977;BME280;36992;48.200;12.418;2022-12-13T07:36:12;96010.66;;;-2.86;47.70
50977;BME280;36992;48.200;12.418;2022-12-13T07:38:39;96016.16;;;-2.88;47.70
50977;BME280;36992;48.200;12.418;2022-12-13T07:41:06;96014.53;;;-2.89;47.68
50977;BME280;36992;48.200;12.418;2022-12-13T07:43:33;96008.47;;;-2.89;48.00
50977;BME280;36992;48.200;12.418;2022-12-13T07:46:02;96007.66;;;-2.90;47.83
50977;BME280;36992;48.200;12.418;2022-12-13T07:48:29;96003.41;;;-2.91;47.64
50977;BME280;36992;48.200;12.418;2022-12-13T07:51:00;96007.66;;;-2.90;47.92
50977;BME280;36992;48.200;12.418;2022-12-13T07:53:29;96003.63;;;-2.92;48.32
50977;BME280;36992;48.200;12.418;2022-12-13T07:55:55;96007.50;;;-2.95;47.86
50977;BME280;36992;48.200;12.418;2022-12-13T07:58:22;96002.50;;;-2.96;48.31
50977;BME280;36992;48.200;12.418;2022-12-13T08:00:48;95997.66;;;-3.00;48.35
50977;BME280;36992;48.200;12.418;2022-12-13T08:03:15;95993.63;;;-3.02;47.94
50977;BME280;36992;48.200;12.418;2022-12-13T08:05:41;95990.41;;;-3.04;47.92
50977;BME280;36992;48.200;12.418;2022-12-13T08:08:09;95992.47;;;-3.06;48.28
50977;BME280;36992;48.200;12.418;2022-12-13T08:10:37;95994.88;;;-3.05;48.32
50977;BME280;36992;48.200;12.418;2022-12-13T08:13:04;96000.97;;;-3.04;48.65
50977;BME280;36992;48.200;12.418;2022-12-13T08:15:31;96008.50;;;-3.08;48.32
50977;BME280;36992;48.200;12.418;2022-12-13T08:17:58;96003.91;;;-3.13;48.25
50977;BME280;36992;48.200;12.418;2022-12-13T08:20:25;96005.72;;;-3.13;48.75
50977;BME280;36992;48.200;12.418;2022-12-13T08:22:53;96003.91;;;-3.13;48.55
50977;BME280;36992;48.200;12.418;2022-12-13T08:25:20;96006.31;;;-3.11;49.12
50977;BME280;36992;48.200;12.418;2022-12-13T08:27:48;95995.53;;;-3.09;48.63
50977;BME280;36992;48.200;12.418;2022-12-13T08:30:15;96004.47;;;-3.10;48.60
50977;BME280;36992;48.200;12.418;2022-12-13T08:32:41;96002.63;;;-3.10;48.81
50977;BME280;36992;48.200;12.418;2022-12-13T08:35:08;96004.28;;;-3.09;49.06
50977;BME280;36992;48.200;12.418;2022-12-13T08:37:34;96005.06;;;-3.08;49.13
50977;BME280;36992;48.200;12.418;2022-12-13T08:40:01;95996.72;;;-3.05;49.20
50977;BME280;36992;48.200;12.418;2022-12-13T08:42:30;95990.56;;;-2.99;48.71
50977;BME280;36992;48.200;12.418;2022-12-13T08:44:58;95995.81;;;-2.99;48.81
50977;BME280;36992;48.200;12.418;2022-12-13T08:47:25;95986.69;;;-2.96;48.69
50977;BME280;36992;48.200;12.418;2022-12-13T08:49:53;95979.78;;;-2.98;48.55
50977;BME280;36992;48.200;12.418;2022-12-13T08:52:21;95996.41;;;-2.97;48.74
50977;BME280;36992;48.200;12.418;2022-12-13T08:54:48;96000.63;;;-2.96;48.53
50977;BME280;36992;48.200;12.418;2022-12-13T08:57:14;96003.28;;;-2.96;48.65
50977;BME280;36992;48.200;12.418;2022-12-13T08:59:41;96005.69;;;-2.94;48.54
50977;BME280;36992;48.200;12.418;2022-12-13T09:02:10;96016.03;;;-2.93;48.71
50977;BME280;36992;48.200;12.418;2022-12-13T09:04:37;96022.31;;;-2.94;49.09
50977;BME280;36992;48.200;12.418;2022-12-13T09:07:03;96024.50;;;-2.91;49.06
50977;BME280;36992;48.200;12.418;2022-12-13T09:09:30;96021.44;;;-2.88;48.96
50977;BME280;36992;48.200;12.418;2022-12-13T09:11:56;96013.53;;;-2.88;49.12
50977;BME280;36992;48.200;12.418;2022-12-13T09:14:23;96018.34;;;-2.85;49.01
50977;BME280;36992;48.200;12.418;2022-12-13T09:16:49;96016.28;;;-2.82;48.94
50977;BME280;36992;48.200;12.418;2022-12-13T09:19:17;96014.25;;;-2.80;49.07
50977;BME280;36992;48.200;12.418;2022-12-13T09:21:44;96020.91;;;-2.78;49.13
50977;BME280;36992;48.200;12.418;2022-12-13T09:24:10;96017.44;;;-2.78;49.13
50977;BME280;36992;48.200;12.418;2022-12-13T09:26:37;96020.09;;;-2.78;49.21
50977;BME280;36992;48.200;12.418;2022-12-13T09:29:03;96018.00;;;-2.76;49.53
50977;BME280;36992;48.200;12.418;2022-12-13T09:31:30;96017.59;;;-2.73;49.32
50977;BME280;36992;48.200;12.418;2022-12-13T09:33:59;96006.56;;;-2.70;49.34
50977;BME280;36992;48.200;12.418;2022-12-13T09:36:26;96013.59;;;-2.64;49.50
50977;BME280;36992;48.200;12.418;2022-12-13T09:38:53;96001.22;;;-2.63;49.57
50977;BME280;36992;48.200;12.418;2022-12-13T09:41:22;95995.47;;;-2.60;49.52
50977;BME280;36992;48.200;12.418;2022-12-13T09:43:54;95996.66;;;-2.56;49.48
50977;BME280;36992;48.200;12.418;2022-12-13T09:46:27;96000.66;;;-2.53;49.37
50977;BME280;36992;48.200;12.418;2022-12-13T09:48:55;95988.50;;;-2.54;49.39
50977;BME280;36992;48.200;12.418;2022-12-13T09:51:23;95983.25;;;-2.54;49.20
50977;BME280;36992;48.200;12.418;2022-12-13T09:53:53;95984.84;;;-2.53;49.41
50977;BME280;36992;48.200;12.418;2022-12-13T09:56:21;95978.75;;;-2.54;49.51
50977;BME280;36992;48.200;12.418;2022-12-13T09:58:50;95981.38;;;-2.54;49.57
50977;BME280;36992;48.200;12.418;2022-12-13T10:01:18;95981.16;;;-2.52;49.71
50977;BME280;36992;48.200;12.418;2022-12-13T10:03:47;95977.84;;;-2.48;49.66
50977;BME280;36992;48.200;12.418;2022-12-13T10:06:17;95983.72;;;-2.46;49.70
50977;BME280;36992;48.200;12.418;2022-12-13T10:08:46;95982.22;;;-2.41;49.90
50977;BME280;36992;48.200;12.418;2022-12-13T10:11:16;95977.28;;;-2.38;49.93
50977;BME280;36992;48.200;12.418;2022-12-13T10:13:47;95983.72;;;-2.34;50.06
50977;BME280;36992;48.200;12.418;2022-12-13T10:16:17;95980.41;;;-2.29;50.03
50977;BME280;36992;48.200;12.418;2022-12-13T10:18:45;95980.75;;;-2.25;50.23
50977;BME280;36992;48.200;12.418;2022-12-13T10:21:15;95968.28;;;-2.18;49.99
50977;BME280;36992;48.200;12.418;2022-12-13T10:23:44;95961.13;;;-2.18;50.07
50977;BME280;36992;48.200;12.418;2022-12-13T10:26:11;95956.19;;;-2.14;50.17
50977;BME280;36992;48.200;12.418;2022-12-13T10:28:41;95957.38;;;-2.10;50.05
50977;BME280;36992;48.200;12.418;2022-12-13T10:31:08;95956.09;;;-2.07;49.89
50977;BME280;36992;48.200;12.418;2022-12-13T10:33:50;95955.97;;;-2.00;49.99
50977;BME280;36992;48.200;12.418;2022-12-13T10:36:30;95960.31;;;-1.94;50.06
50977;BME280;36992;48.200;12.418;2022-12-13T10:38:57;95963.22;;;-1.96;50.03
50977;BME280;36992;48.200;12.418;2022-12-13T10:41:30;95959.41;;;-1.88;50.01
50977;BME280;36992;48.200;12.418;2022-12-13T10:44:13;95957.34;;;-1.86;50.09
50977;BME280;36992;48.200;12.418;2022-12-13T10:46:47;95952.63;;;-1.84;50.37
50977;BME280;36992;48.200;12.418;2022-12-13T10:49:16;95947.91;;;-1.82;50.58
50977;BME280;36992;48.200;12.418;2022-12-13T10:51:45;95946.44;;;-1.78;50.21
50977;BME280;36992;48.200;12.418;2022-12-13T10:54:16;95937.59;;;-1.71;50.32
50977;BME280;36992;48.200;12.418;2022-12-13T10:56:45;95932.63;;;-1.68;49.80
50977;BME280;36992;48.200;12.418;2022-12-13T10:59:25;95925.63;;;-1.62;50.25
50977;BME280;36992;48.200;12.418;2022-12-13T11:01:53;95920.34;;;-1.62;49.86
50977;BME280;36992;48.200;12.418;2022-12-13T11:04:22;95926.75;;;-1.58;49.82
50977;BME280;36992;48.200;12.418;2022-12-13T11:06:50;95921.47;;;-1.58;49.92
50977;BME280;36992;48.200;12.418;2022-12-13T11:09:24;95920.53;;;-1.52;50.08
50977;BME280;36992;48.200;12.418;2022-12-13T11:11:51;95925.81;;;-1.52;49.92
50977;BME280;36992;48.200;12.418;2022-12-13T11:14:23;95919.59;;;-1.45;50.05
50977;BME280;36992;48.200;12.418;2022-12-13T11:16:53;95913.63;;;-1.41;50.11
50977;BME280;36992;48.200;12.418;2022-12-13T11:19:25;95909.47;;;-1.37;50.01
50977;BME280;36992;48.200;12.418;2022-12-13T11:21:52;95914.03;;;-1.32;49.92
50977;BME280;36992;48.200;12.418;2022-12-13T11:24:22;95914.13;;;-1.27;49.83
50977;BME280;36992;48.200;12.418;2022-12-13T11:26:53;95917.94;;;-1.23;49.96
50977;BME280;36992;48.200;12.418;2022-12-13T11:32:34;95912.03;;;-1.13;49.93
50977;BME280;36992;48.200;12.418;2022-12-13T11:35:10;95905.47;;;-1.10;49.69
50977;BME280;36992;48.200;12.418;2022-12-13T11:37:44;95896.03;;;-1.06;49.81
50977;BME280;36992;48.200;12.418;2022-12-13T11:40:18;95904.50;;;-1.04;49.76
50977;BME280;36992;48.200;12.418;2022-12-13T11:42:50;95904.59;;;-0.99;49.66
50977;BME280;36992;48.200;12.418;2022-12-13T11:45:19;95908.03;;;-0.98;49.61
50977;BME280;36992;48.200;12.418;2022-12-13T11:47:58;95899.88;;;-0.97;49.47
50977;BME280;36992;48.200;12.418;2022-12-13T11:50:30;95894.13;;;-0.93;49.56
50977;BME280;36992;48.200;12.418;2022-12-13T11:53:09;95892.03;;;-0.91;49.70
50977;BME280;36992;48.200;12.418;2022-12-13T11:55:43;95888.34;;;-0.90;49.72
50977;BME280;36992;48.200;12.418;2022-12-13T11:58:17;95888.91;;;-0.88;49.73
50977;BME280;36992;48.200;12.418;2022-12-13T12:00:49;95886.25;;;-0.88;49.71
50977;BME280;36992;48.200;12.418;2022-12-13T12:03:20;95891.31;;;-0.87;49.63
50977;BME280;36992;48.200;12.418;2022-12-13T12:05:50;95887.88;;;-0.87;49.99
50977;BME280;36992;48.200;12.418;2022-12-13T12:08:24;95891.06;;;-0.85;49.94
50977;BME280;36992;48.200;12.418;2022-12-13T12:11:01;95891.16;;;-0.80;50.07
50977;BME280;36992;48.200;12.418;2022-12-13T12:13:34;95894.84;;;-0.81;49.99
50977;BME280;36992;48.200;12.418;2022-12-13T12:16:08;95896.19;;;-0.78;50.05
50977;BME280;36992;48.200;12.418;2022-12-13T12:18:38;95887.25;;;-0.77;49.99
50977;BME280;36992;48.200;12.418;2022-12-13T12:21:18;95888.34;;;-0.73;50.07
50977;BME280;36992;48.200;12.418;2022-12-13T12:24:06;95875.72;;;-0.71;50.23
50977;BME280;36992;48.200;12.418;2022-12-13T12:26:39;95873.84;;;-0.71;50.17
50977;BME280;36992;48.200;12.418;2022-12-13T12:29:26;95888.66;;;-0.70;50.18
50977;BME280;36992;48.200;12.418;2022-12-13T12:32:04;95877.06;;;-0.69;50.35
50977;BME280;36992;48.200;12.418;2022-12-13T12:34:39;95870.72;;;-0.68;50.10
50977;BME280;36992;48.200;12.418;2022-12-13T12:37:15;95872.34;;;-0.66;50.10
50977;BME280;36992;48.200;12.418;2022-12-13T12:39:55;95868.19;;;-0.62;50.13
50977;BME280;36992;48.200;12.418;2022-12-13T12:42:38;95859.19;;;-0.61;50.31
50977;BME280;36992;48.200;12.418;2022-12-13T12:45:22;95858.69;;;-0.58;50.28
50977;BME280;36992;48.200;12.418;2022-12-13T12:48:03;95863.53;;;-0.55;50.38
50977;BME280;36992;48.200;12.418;2022-12-13T12:50:38;95863.03;;;-0.52;50.51
50977;BME280;36992;48.200;12.418;2022-12-13T12:53:27;95866.56;;;-0.46;50.31
50977;BME280;36992;48.200;12.418;2022-12-13T12:56:04;95866.06;;;-0.43;50.29
50977;BME280;36992;48.200;12.418;2022-12-13T12:58:40;95867.44;;;-0.41;50.21
50977;BME280;36992;48.200;12.418;2022-12-13T13:01:20;95868.78;;;-0.38;50.39
50977;BME280;36992;48.200;12.418;2022-12-13T13:03:50;95873.03;;;-0.37;50.32
50977;BME280;36992;48.200;12.418;2022-12-13T13:06:22;95866.69;;;-0.36;50.36
50977;BME280;36992;48.200;12.418;2022-12-13T13:08:53;95871.97;;;-0.36;50.18
50977;BME280;36992;48.200;12.418;2022-12-13T13:11:25;95865.91;;;-0.36;50.31